Terminal Aerodrome Forecast
Issued by NWS Boise, ID

Home | Current Version | Previous Version | Text Only | Print | Product List | Glossary On
Versions: 1 2 3 4 5 6 7 8 9 10 11 12 13 14 15 16 17 18 19 20 21 22 23 24 25 26 27 28 29 30 31 32 33 34 35 36 37 38 39
000
FTUS45 KBOI 301720
TAFBOI
TAF
KBOI 301720Z 3018/3118 VRB03KT 1/4SM FZFG VV002
      TEMPO 3018/3019 3SM BR SCT005
     FM301900 31005KT P6SM BKN040
     FM310300 VRB03KT P6SM SCT040
     FM311500 VRB03KT 1SM BR BKN005=

USA.gov is the U.S. government's official web portal to all federal, state and local government web resources and services.